Time;durP1;ratioP1;P1;durP2;ratioP2;P2;SDS_P1;SDS_P2;PMS_P1;PMS_P2;Temp;Humidity;BMP_temperature;BMP_pressure;BME280_temperature;BME280_humidity;BME280_pressure;Samples;Min_cycle;Max_cycle;Signal;HPM_P1;HPM_P2
2021/12/14 00:00:32;;;;;;;284.20;145.93;;;;;;;;;;6219092;28;20386;-74
2021/12/14 00:03:33;;;;;;;279.83;135.32;;;;;;;;;;6219841;28;20048;-74
2021/12/14 00:06:34;;;;;;;278.33;143.15;;;;;;;;;;6225742;28;20053;-74
2021/12/14 00:09:36;;;;;;;281.13;144.57;;;;;;;;;;6243546;28;20045;-74
2021/12/14 00:12:55;;;;;;;302.10;149.05;;;;;;;;;;6242551;28;20128;-74
2021/12/14 00:15:55;;;;;;;296.13;147.38;;;;;;;;;;6241841;28;20493;-74
2021/12/14 00:18:56;;;;;;;278.00;141.75;;;;;;;;;;6241098;28;20017;-73
2021/12/14 00:22:03;;;;;;;266.67;134.98;;;;;;;;;;6239976;28;20051;-73
2021/12/14 00:25:05;;;;;;;310.67;153.63;;;;;;;;;;6243369;28;20031;-73
2021/12/14 00:28:07;;;;;;;302.88;151.52;;;;;;;;;;6223923;28;20026;-73
2021/12/14 00:31:10;;;;;;;278.25;143.23;;;;;;;;;;6218305;28;20021;-73
2021/12/14 00:34:10;;;;;;;287.52;144.85;;;;;;;;;;6218948;28;20010;-73
2021/12/14 00:37:14;;;;;;;283.23;141.95;;;;;;;;;;6237398;28;20476;-73
2021/12/14 00:40:20;;;;;;;265.17;139.30;;;;;;;;;;6242738;28;20053;-73
2021/12/14 00:43:21;;;;;;;266.13;130.65;;;;;;;;;;6243365;28;20049;-74
2021/12/14 00:46:22;;;;;;;277.55;137.18;;;;;;;;;;6242437;28;20067;-74
2021/12/14 00:49:22;;;;;;;263.58;137.10;;;;;;;;;;6242666;28;20028;-74
2021/12/14 00:52:22;;;;;;;258.13;135.52;;;;;;;;;;6230032;28;20483;-73
2021/12/14 00:55:27;;;;;;;262.13;136.23;;;;;;;;;;6243155;28;20363;-73
2021/12/14 00:58:27;;;;;;;267.70;140.30;;;;;;;;;;6242322;28;20083;-73
2021/12/14 01:01:30;;;;;;;246.15;121.90;;;;;;;;;;6243035;28;20017;-73
2021/12/14 01:04:34;;;;;;;269.25;136.50;;;;;;;;;;6242845;28;20425;-73
2021/12/14 01:07:35;;;;;;;281.88;135.15;;;;;;;;;;6227359;28;20045;-73
2021/12/14 01:10:41;;;;;;;288.90;142.43;;;;;;;;;;6217967;28;20562;-73
2021/12/14 01:13:51;;;;;;;278.13;143.80;;;;;;;;;;6220534;28;20090;-73
2021/12/14 01:17:07;;;;;;;284.15;139.82;;;;;;;;;;6242285;28;20013;-73
2021/12/14 01:20:09;;;;;;;275.67;132.05;;;;;;;;;;6242140;28;20721;-73
2021/12/14 01:23:17;;;;;;;267.40;135.68;;;;;;;;;;6243139;28;20421;-73
2021/12/14 01:26:19;;;;;;;258.83;132.85;;;;;;;;;;6240879;28;20059;-73
2021/12/14 01:29:19;;;;;;;261.17;130.75;;;;;;;;;;6242178;28;20121;-73
2021/12/14 01:32:23;;;;;;;272.05;138.52;;;;;;;;;;6244378;28;20021;-73
2021/12/14 01:35:27;;;;;;;260.15;138.25;;;;;;;;;;6246046;28;20049;-73
2021/12/14 01:41:28;;;;;;;267.80;130.50;;;;;;;;;;6247068;28;20167;-73
2021/12/14 01:44:31;;;;;;;290.20;140.43;;;;;;;;;;6247094;28;20329;-73
2021/12/14 01:47:33;;;;;;;284.92;136.98;;;;;;;;;;6245595;28;20352;-73
2021/12/14 01:50:37;;;;;;;279.67;136.23;;;;;;;;;;6235730;28;20541;-73
2021/12/14 01:53:38;;;;;;;290.75;138.00;;;;;;;;;;6237821;28;20053;-73
2021/12/14 01:56:39;;;;;;;287.77;145.90;;;;;;;;;;6232634;28;20529;-73
2021/12/14 01:59:44;;;;;;;291.88;143.07;;;;;;;;;;6246531;28;20033;-73
2021/12/14 02:02:46;;;;;;;286.92;141.88;;;;;;;;;;6245555;28;20079;-73
2021/12/14 02:05:48;;;;;;;282.13;136.43;;;;;;;;;;6246859;28;20407;-73
2021/12/14 02:08:48;;;;;;;;;;;;;;;;;;6246690;28;20106;-74
2021/12/14 02:11:50;;;;;;;292.13;134.10;;;;;;;;;;6246642;28;19909;-74
2021/12/14 02:14:51;;;;;;;296.33;135.27;;;;;;;;;;6261250;28;20044;-74
2021/12/14 02:17:52;;;;;;;280.75;143.10;;;;;;;;;;6246142;28;20030;-74
2021/12/14 02:20:52;;;;;;;297.50;139.55;;;;;;;;;;6246832;28;20061;-74
2021/12/14 02:23:53;;;;;;;302.98;139.07;;;;;;;;;;6245084;28;20027;-74
2021/12/14 02:26:54;;;;;;;275.13;135.50;;;;;;;;;;6244456;28;20059;-74
2021/12/14 02:30:02;;;;;;;272.38;130.52;;;;;;;;;;6233050;28;20486;-74
2021/12/14 02:33:09;;;;;;;282.55;138.40;;;;;;;;;;6231624;28;20029;-74
2021/12/14 02:36:11;;;;;;;283.17;135.80;;;;;;;;;;6246006;28;20025;-74
2021/12/14 02:39:45;;;;;;;291.98;138.02;;;;;;;;;;6245686;28;20045;-74
2021/12/14 02:42:40;;;;;;;279.80;129.43;;;;;;;;;;6236789;28;20030;-74
2021/12/14 02:45:41;;;;;;;300.00;135.27;;;;;;;;;;6237616;28;20067;-73
2021/12/14 02:48:42;;;;;;;285.13;135.75;;;;;;;;;;6243842;28;20017;-73
2021/12/14 02:51:44;;;;;;;281.90;132.05;;;;;;;;;;6245718;28;20555;-73
2021/12/14 02:54:47;;;;;;;261.23;133.55;;;;;;;;;;6243738;28;20064;-74
2021/12/14 02:57:53;;;;;;;292.48;134.05;;;;;;;;;;6225053;28;20453;-74
2021/12/14 03:00:53;;;;;;;277.02;127.20;;;;;;;;;;6221569;28;20025;-74
2021/12/14 03:03:58;;;;;;;281.50;138.43;;;;;;;;;;6221578;28;20022;-74
2021/12/14 03:07:00;;;;;;;286.10;130.63;;;;;;;;;;6229250;28;20028;-74
2021/12/14 03:10:19;;;;;;;282.30;132.00;;;;;;;;;;6244540;28;20049;-74
2021/12/14 03:13:21;;;;;;;285.08;135.65;;;;;;;;;;6245234;28;20024;-74
2021/12/14 03:16:23;;;;;;;285.23;129.40;;;;;;;;;;6260108;28;20017;-71
2021/12/14 03:19:23;;;;;;;284.70;132.48;;;;;;;;;;6244353;28;20037;-71
2021/12/14 03:22:28;;;;;;;273.73;126.82;;;;;;;;;;6243478;28;20029;-72
2021/12/14 03:25:29;;;;;;;299.90;135.60;;;;;;;;;;6244480;28;20029;-72
2021/12/14 03:28:30;;;;;;;263.23;131.30;;;;;;;;;;6244024;28;20028;-72
2021/12/14 03:31:32;;;;;;;275.98;131.15;;;;;;;;;;6244801;28;20624;-72
2021/12/14 03:34:34;;;;;;;273.95;133.60;;;;;;;;;;6244409;28;20448;-72
2021/12/14 03:37:34;;;;;;;286.45;136.68;;;;;;;;;;6243994;28;20025;-72
2021/12/14 03:40:35;;;;;;;296.40;136.38;;;;;;;;;;6243733;28;20393;-72
2021/12/14 03:43:37;;;;;;;272.20;131.07;;;;;;;;;;6243218;28;20026;-72
2021/12/14 03:46:43;;;;;;;333.80;145.18;;;;;;;;;;6231790;28;20025;-72
2021/12/14 03:49:50;;;;;;;258.63;129.35;;;;;;;;;;6219336;28;20022;-72
2021/12/14 03:52:51;;;;;;;276.20;134.02;;;;;;;;;;6226772;28;20025;-72
2021/12/14 03:55:59;;;;;;;275.15;129.23;;;;;;;;;;6237668;28;20370;-72
2021/12/14 03:59:00;;;;;;;268.92;130.00;;;;;;;;;;6219120;28;20033;-72
2021/12/14 04:02:02;;;;;;;271.33;132.38;;;;;;;;;;6219392;28;20168;-72
2021/12/14 04:05:09;;;;;;;259.75;124.70;;;;;;;;;;6219392;28;20025;-72
2021/12/14 04:08:10;;;;;;;284.13;127.78;;;;;;;;;;6236661;28;20044;-72
2021/12/14 04:11:11;;;;;;;268.83;130.20;;;;;;;;;;6243798;28;20036;-72
2021/12/14 04:14:11;;;;;;;274.75;129.00;;;;;;;;;;6239265;28;20261;-72
2021/12/14 04:17:12;;;;;;;282.10;126.35;;;;;;;;;;6239324;28;20017;-72
2021/12/14 04:20:14;;;;;;;274.13;132.63;;;;;;;;;;6237858;28;20018;-72
2021/12/14 04:23:19;;;;;;;287.48;130.73;;;;;;;;;;6243843;28;20025;-72
2021/12/14 04:26:20;;;;;;;270.63;126.05;;;;;;;;;;6243577;28;20096;-71
2021/12/14 04:29:20;;;;;;;264.05;125.20;;;;;;;;;;6243047;28;20049;-71
2021/12/14 04:32:20;;;;;;;275.35;132.25;;;;;;;;;;6242942;28;20013;-71
2021/12/14 04:35:21;;;;;;;277.58;123.72;;;;;;;;;;6241813;28;20021;-72
2021/12/14 04:38:27;;;;;;;268.85;128.52;;;;;;;;;;6242252;28;20151;-72
2021/12/14 04:54:52;;;;;;;268.50;120.15;;;;;;;;;;6243515;28;20037;-72
2021/12/14 04:57:53;;;;;;;243.65;121.05;;;;;;;;;;6220729;28;20026;-72
2021/12/14 05:00:53;;;;;;;266.27;122.93;;;;;;;;;;6218171;28;20044;-72
2021/12/14 05:03:56;;;;;;;256.30;117.88;;;;;;;;;;6218173;28;20382;-72
2021/12/14 05:07:25;;;;;;;263.63;120.80;;;;;;;;;;6227342;28;20018;-72
2021/12/14 05:10:23;;;;;;;260.73;116.57;;;;;;;;;;6242224;28;20053;-72
2021/12/14 05:13:24;;;;;;;264.20;116.80;;;;;;;;;;6242988;28;20382;-72
2021/12/14 05:16:27;;;;;;;276.97;114.57;;;;;;;;;;6240805;28;20017;-72
2021/12/14 05:19:29;;;;;;;257.20;117.35;;;;;;;;;;6241968;28;20478;-71
2021/12/14 05:22:32;;;;;;;231.30;115.85;;;;;;;;;;6242608;28;20021;-71
2021/12/14 05:25:33;;;;;;;252.95;113.22;;;;;;;;;;6241842;28;20377;-72
2021/12/14 05:28:33;;;;;;;237.38;110.15;;;;;;;;;;6230179;28;20036;-72
2021/12/14 05:31:33;;;;;;;242.88;113.95;;;;;;;;;;6228146;28;20060;-72
2021/12/14 05:34:36;;;;;;;267.52;120.32;;;;;;;;;;6239364;28;20022;-72
2021/12/14 05:37:45;;;;;;;248.85;117.40;;;;;;;;;;6238330;28;20079;-72
2021/12/14 05:43:45;;;;;;;251.77;112.43;;;;;;;;;;6233833;28;20120;-72
2021/12/14 05:46:50;;;;;;;257.17;113.95;;;;;;;;;;6241403;28;20021;-72
2021/12/14 05:49:50;;;;;;;243.50;110.80;;;;;;;;;;6240769;28;20025;-72
2021/12/14 05:52:51;;;;;;;237.30;104.60;;;;;;;;;;6240738;28;20014;-72
2021/12/14 05:55:52;;;;;;;236.05;96.38;;;;;;;;;;6235539;28;20482;-72
2021/12/14 05:58:54;;;;;;;225.70;100.60;;;;;;;;;;6240488;28;20021;-72
2021/12/14 06:01:54;;;;;;;;;;;;;;;;;;6241656;28;20020;-72
2021/12/14 06:04:54;;;;;;;228.02;103.85;;;;;;;;;;6229514;28;19910;-72
2021/12/14 06:07:55;;;;;;;223.70;96.13;;;;;;;;;;6221270;28;20014;-72
2021/12/14 06:10:56;;;;;;;205.30;97.35;;;;;;;;;;6226500;28;20042;-72
2021/12/14 06:13:57;;;;;;;206.07;91.30;;;;;;;;;;6238923;28;20017;-72
2021/12/14 06:16:59;;;;;;;212.07;93.13;;;;;;;;;;6242470;28;20096;-72
2021/12/14 06:20:00;;;;;;;198.85;94.47;;;;;;;;;;6245465;28;20033;-72
2021/12/14 06:23:01;;;;;;;206.57;90.72;;;;;;;;;;6243144;28;20017;-72
2021/12/14 06:26:01;;;;;;;208.27;93.75;;;;;;;;;;6238132;28;20055;-72
2021/12/14 06:29:06;;;;;;;222.40;94.88;;;;;;;;;;6241080;28;20041;-72
2021/12/14 06:32:12;;;;;;;229.32;97.30;;;;;;;;;;6244040;28;20032;-72
2021/12/14 06:35:19;;;;;;;219.68;91.80;;;;;;;;;;6241301;28;20393;-72
2021/12/14 06:38:28;;;;;;;220.63;95.45;;;;;;;;;;6243230;28;20116;-72
2021/12/14 06:41:28;;;;;;;212.80;92.72;;;;;;;;;;6242902;28;20041;-72
2021/12/14 06:44:28;;;;;;;207.88;94.50;;;;;;;;;;6240774;28;20386;-72
2021/12/14 06:47:29;;;;;;;208.27;93.25;;;;;;;;;;6236565;28;20429;-72
2021/12/14 06:50:35;;;;;;;209.07;90.82;;;;;;;;;;6235712;28;20045;-72
2021/12/14 06:53:36;;;;;;;237.43;102.13;;;;;;;;;;6249631;28;20356;-72
2021/12/14 06:56:36;;;;;;;206.32;97.22;;;;;;;;;;6239496;28;20025;-72
2021/12/14 06:59:37;;;;;;;221.18;94.30;;;;;;;;;;6235564;28;20118;-72
2021/12/14 07:02:37;;;;;;;214.88;101.97;;;;;;;;;;6234183;28;20025;-72
2021/12/14 07:05:39;;;;;;;243.00;98.50;;;;;;;;;;6233084;28;20029;-71
2021/12/14 07:08:39;;;;;;;231.13;98.18;;;;;;;;;;6258379;28;20068;-72
2021/12/14 07:11:56;;;;;;;215.50;97.82;;;;;;;;;;6240654;28;20036;-72
2021/12/14 07:14:58;;;;;;;200.50;88.85;;;;;;;;;;6232875;28;21007;-72
2021/12/14 07:18:04;;;;;;;186.10;87.93;;;;;;;;;;6241870;28;20025;-72
2021/12/14 07:21:04;;;;;;;197.10;85.13;;;;;;;;;;6241349;28;20082;-72
2021/12/14 07:24:23;;;;;;;192.80;86.13;;;;;;;;;;6239191;28;20037;-72
2021/12/14 07:27:26;;;;;;;180.02;80.93;;;;;;;;;;6244940;28;20497;-72
2021/12/14 07:30:26;;;;;;;184.55;83.70;;;;;;;;;;6242420;28;20464;-72
2021/12/14 07:33:28;;;;;;;163.75;77.30;;;;;;;;;;6243141;28;20037;-73
2021/12/14 07:36:32;;;;;;;166.18;77.13;;;;;;;;;;6235422;28;20027;-72
2021/12/14 07:39:32;;;;;;;178.45;79.07;;;;;;;;;;6229321;28;20140;-73
2021/12/14 07:42:32;;;;;;;168.10;75.35;;;;;;;;;;6244504;28;20033;-73
2021/12/14 07:45:32;;;;;;;181.80;80.28;;;;;;;;;;6244444;28;20025;-73
2021/12/14 07:48:41;;;;;;;169.10;79.38;;;;;;;;;;6228354;28;20075;-73
2021/12/14 07:51:41;;;;;;;174.30;80.80;;;;;;;;;;6236377;28;20049;-73
2021/12/14 07:54:49;;;;;;;166.00;77.78;;;;;;;;;;6243375;28;20025;-73
2021/12/14 07:57:50;;;;;;;163.20;78.90;;;;;;;;;;6244407;28;20560;-73
2021/12/14 08:00:52;;;;;;;178.98;77.72;;;;;;;;;;6242632;28;20083;-72
2021/12/14 08:04:10;;;;;;;170.50;77.45;;;;;;;;;;6241315;28;20029;-73
2021/12/14 08:07:20;;;;;;;163.10;77.22;;;;;;;;;;6243287;28;20029;-73
2021/12/14 08:10:24;;;;;;;158.73;74.20;;;;;;;;;;6256110;28;20045;-73
2021/12/14 08:13:25;;;;;;;175.77;79.20;;;;;;;;;;6243945;28;20037;-73
2021/12/14 08:16:25;;;;;;;171.70;74.47;;;;;;;;;;6243116;28;20673;-73
2021/12/14 08:19:26;;;;;;;182.50;80.75;;;;;;;;;;6241783;28;20105;-73
2021/12/14 08:22:32;;;;;;;172.60;82.63;;;;;;;;;;6243956;28;20439;-73
2021/12/14 08:25:33;;;;;;;166.10;79.28;;;;;;;;;;6242408;28;20485;-72
2021/12/14 08:28:49;;;;;;;190.60;82.82;;;;;;;;;;6242662;28;20120;-72
2021/12/14 08:31:52;;;;;;;212.50;93.95;;;;;;;;;;6242532;28;20026;-72
2021/12/14 08:34:53;;;;;;;171.90;82.30;;;;;;;;;;6243291;28;20394;-72
2021/12/14 08:37:58;;;;;;;170.77;76.13;;;;;;;;;;6242409;28;20021;-72
2021/12/14 08:41:11;;;;;;;158.68;71.13;;;;;;;;;;6240765;28;20112;-72
2021/12/14 08:44:14;;;;;;;174.75;76.28;;;;;;;;;;6241378;28;20021;-72
2021/12/14 08:47:19;;;;;;;181.13;84.68;;;;;;;;;;6241442;28;20022;-72
2021/12/14 08:50:19;;;;;;;140.20;64.63;;;;;;;;;;6241225;28;20020;-72
2021/12/14 08:53:21;;;;;;;180.05;81.20;;;;;;;;;;6241820;28;20045;-73
2021/12/14 08:56:22;;;;;;;181.95;79.95;;;;;;;;;;6236245;28;20020;-72
2021/12/14 08:59:23;;;;;;;172.13;73.47;;;;;;;;;;6239178;28;20027;-72
2021/12/14 09:02:25;;;;;;;160.65;71.40;;;;;;;;;;6240763;28;20029;-73
2021/12/14 09:05:26;;;;;;;;;;;;;;;;;;6239998;28;20390;-73
2021/12/14 09:08:26;;;;;;;165.95;75.90;;;;;;;;;;6240160;28;19940;-73
2021/12/14 09:11:28;;;;;;;141.55;66.40;;;;;;;;;;6241166;28;20401;-72
2021/12/14 09:14:28;;;;;;;;;;;;;;;;;;6242413;28;20033;-72
2021/12/14 09:17:29;;;;;;;134.30;59.20;;;;;;;;;;6242790;28;20008;-72
2021/12/14 09:20:29;;;;;;;142.98;67.22;;;;;;;;;;6240711;28;20105;-72
2021/12/14 09:23:31;;;;;;;124.97;60.70;;;;;;;;;;6241266;28;20021;-72
2021/12/14 09:26:35;;;;;;;159.13;71.10;;;;;;;;;;6239397;28;20764;-72
2021/12/14 09:29:36;;;;;;;149.73;71.35;;;;;;;;;;6231760;28;20048;-72
2021/12/14 09:32:37;;;;;;;162.65;73.05;;;;;;;;;;6231648;28;20101;-72
2021/12/14 09:35:38;;;;;;;153.43;68.85;;;;;;;;;;6239046;28;20529;-72
2021/12/14 09:38:42;;;;;;;128.48;58.78;;;;;;;;;;6216020;28;20025;-72
2021/12/14 09:41:44;;;;;;;157.10;73.20;;;;;;;;;;6214084;28;20049;-72
2021/12/14 09:44:46;;;;;;;184.93;85.25;;;;;;;;;;6221373;28;20036;-72
2021/12/14 09:47:47;;;;;;;142.52;67.75;;;;;;;;;;6223605;28;20095;-70
2021/12/14 09:50:48;;;;;;;128.17;63.00;;;;;;;;;;6215092;28;20397;-70
2021/12/14 09:53:49;;;;;;;117.90;58.38;;;;;;;;;;6221980;28;20049;-72
2021/12/14 09:57:01;;;;;;;147.68;68.13;;;;;;;;;;6228892;28;20029;-72
2021/12/14 10:00:05;;;;;;;138.63;63.47;;;;;;;;;;6237481;28;20079;-72
2021/12/14 10:03:06;;;;;;;133.75;62.25;;;;;;;;;;6245094;28;20029;-72
2021/12/14 10:06:10;;;;;;;102.00;48.33;;;;;;;;;;6231958;28;20061;-72
2021/12/14 10:09:16;;;;;;;102.32;49.13;;;;;;;;;;6220668;28;20490;-72
2021/12/14 10:15:27;;;;;;;97.40;48.47;;;;;;;;;;6220934;28;20456;-72
2021/12/14 10:18:32;;;;;;;109.90;49.58;;;;;;;;;;6226928;28;20031;-72
2021/12/14 10:21:35;;;;;;;103.50;48.50;;;;;;;;;;6244573;28;20527;-72
2021/12/14 10:24:35;;;;;;;93.10;45.40;;;;;;;;;;6243414;28;20481;-72
2021/12/14 10:27:36;;;;;;;107.75;51.28;;;;;;;;;;6244342;28;20060;-72
2021/12/14 10:30:39;;;;;;;109.95;51.72;;;;;;;;;;6243674;28;20547;-72
2021/12/14 10:33:42;;;;;;;105.78;50.58;;;;;;;;;;6244208;28;20512;-72
2021/12/14 10:36:46;;;;;;;79.00;38.63;;;;;;;;;;6259139;28;20014;-72
2021/12/14 10:43:13;;;;;;;88.55;44.35;;;;;;;;;;6244076;28;20519;-72
2021/12/14 10:46:16;;;;;;;83.47;39.15;;;;;;;;;;6241976;28;20108;-72
2021/12/14 10:49:17;;;;;;;69.65;33.40;;;;;;;;;;6240286;28;20034;-72
2021/12/14 10:52:21;;;;;;;78.68;39.00;;;;;;;;;;6229019;28;20017;-72
2021/12/14 10:55:25;;;;;;;91.60;44.08;;;;;;;;;;6231409;28;20018;-72
2021/12/14 10:58:27;;;;;;;74.90;37.97;;;;;;;;;;6243282;28;20021;-72
2021/12/14 11:01:31;;;;;;;;;;;;;;;;;;6241294;28;20033;-73
2021/12/14 11:04:38;;;;;;;73.38;37.35;;;;;;;;;;6237530;28;19909;-73
2021/12/14 11:07:41;;;;;;;71.93;34.58;;;;;;;;;;6243457;28;20381;-73
2021/12/14 11:10:41;;;;;;;75.60;35.17;;;;;;;;;;6242273;28;20050;-73
2021/12/14 11:13:47;;;;;;;68.47;29.95;;;;;;;;;;6244074;28;20488;-74
2021/12/14 11:20:28;;;;;;;77.15;34.05;;;;;;;;;;6221166;28;20030;-74
2021/12/14 11:23:37;;;;;;;70.65;32.22;;;;;;;;;;6220049;28;20048;-73
2021/12/14 11:26:37;;;;;;;71.95;33.08;;;;;;;;;;6238467;28;20038;-73
2021/12/14 11:29:37;;;;;;;70.93;37.70;;;;;;;;;;6233131;28;20143;-73
2021/12/14 11:32:42;;;;;;;80.10;38.90;;;;;;;;;;6221028;28;20092;-72
2021/12/14 11:35:48;;;;;;;71.80;34.63;;;;;;;;;;6216791;28;20084;-73
2021/12/14 11:38:52;;;;;;;70.15;33.97;;;;;;;;;;6227099;28;20520;-72
2021/12/14 11:41:58;;;;;;;79.43;42.05;;;;;;;;;;6231922;28;20022;-72
2021/12/14 11:45:00;;;;;;;79.07;38.38;;;;;;;;;;6240817;28;20037;-72
2021/12/14 11:48:01;;;;;;;71.53;33.22;;;;;;;;;;6240648;28;20040;-72
2021/12/14 11:51:03;;;;;;;77.68;37.35;;;;;;;;;;6239456;28;20120;-72
2021/12/14 11:54:03;;;;;;;;;;;;;;;;;;6243215;28;20021;-72
2021/12/14 11:57:04;;;;;;;74.95;35.40;;;;;;;;;;6242438;28;19912;-72
2021/12/14 12:00:09;;;;;;;74.45;33.38;;;;;;;;;;6240257;28;20082;-71
2021/12/14 12:03:21;;;;;;;64.63;30.08;;;;;;;;;;6242007;28;20017;-71
2021/12/14 12:09:42;;;;;;;74.90;39.00;;;;;;;;;;6237816;28;20521;-72
2021/12/14 12:12:42;;;;;;;64.75;29.58;;;;;;;;;;6229365;28;20029;-72
2021/12/14 12:15:43;;;;;;;84.95;32.92;;;;;;;;;;6228376;28;20026;-72
2021/12/14 12:19:02;;;;;;;76.22;37.20;;;;;;;;;;6240447;28;20033;-72
2021/12/14 12:22:11;;;;;;;100.50;41.28;;;;;;;;;;6241320;28;20030;-72
2021/12/14 12:25:20;;;;;;;84.25;37.15;;;;;;;;;;6240928;28;20021;-72
2021/12/14 12:28:25;;;;;;;81.15;37.55;;;;;;;;;;6241015;28;20452;-71
2021/12/14 12:31:25;;;;;;;84.75;42.17;;;;;;;;;;6226807;28;20149;-71
2021/12/14 12:34:35;;;;;;;99.45;43.53;;;;;;;;;;6217828;28;20030;-72
2021/12/14 12:37:40;;;;;;;104.68;46.55;;;;;;;;;;6233592;28;20105;-72
2021/12/14 12:40:47;;;;;;;97.22;43.17;;;;;;;;;;6216809;28;20080;-72
2021/12/14 12:43:50;;;;;;;86.75;44.67;;;;;;;;;;6216400;28;20482;-71
2021/12/14 12:46:52;;;;;;;95.70;45.25;;;;;;;;;;6213707;28;20045;-72
2021/12/14 12:49:56;;;;;;;98.07;43.85;;;;;;;;;;6218026;28;20570;-71
2021/12/14 12:52:57;;;;;;;115.20;57.53;;;;;;;;;;6219580;28;20096;-72
2021/12/14 12:56:26;;;;;;;122.82;56.97;;;;;;;;;;6219690;28;20380;-71
2021/12/14 12:59:49;;;;;;;113.97;50.10;;;;;;;;;;6215502;28;20610;-71
2021/12/14 13:02:49;;;;;;;;;;;;;;;;;;6220300;28;20029;-71
2021/12/14 13:06:25;;;;;;;103.32;49.42;;;;;;;;;;6232088;28;19920;-71
2021/12/14 13:09:25;;;;;;;93.82;45.08;;;;;;;;;;6128434;28;20593;-71
2021/12/14 13:13:00;;;;;;;83.90;42.17;;;;;;;;;;6192176;28;20053;-71
2021/12/14 13:16:21;;;;;;;98.50;47.85;;;;;;;;;;6170114;28;20038;-71
2021/12/14 13:19:23;;;;;;;92.90;44.95;;;;;;;;;;6189892;28;20037;-71
2021/12/14 13:22:23;;;;;;;97.88;45.58;;;;;;;;;;6192623;28;20030;-71
2021/12/14 13:25:34;;;;;;;100.93;48.38;;;;;;;;;;6187840;28;20389;-71
2021/12/14 13:28:36;;;;;;;101.57;47.30;;;;;;;;;;6172141;28;20043;-71
2021/12/14 13:31:55;;;;;;;92.53;43.03;;;;;;;;;;6193178;28;20034;-71
2021/12/14 13:35:01;;;;;;;93.18;44.42;;;;;;;;;;6176296;28;20441;-71
2021/12/14 13:38:03;;;;;;;99.10;49.35;;;;;;;;;;6181256;28;20038;-71
2021/12/14 13:41:03;;;;;;;107.25;50.22;;;;;;;;;;6185506;28;20018;-71
2021/12/14 13:44:04;;;;;;;105.63;54.30;;;;;;;;;;6171102;28;20093;-71
2021/12/14 13:47:07;;;;;;;112.03;49.67;;;;;;;;;;6204784;28;20414;-71
2021/12/14 13:50:09;;;;;;;101.18;54.40;;;;;;;;;;6193190;28;20018;-71
2021/12/14 13:53:10;;;;;;;100.78;50.20;;;;;;;;;;6185914;28;20030;-71
2021/12/14 13:56:12;;;;;;;108.10;49.53;;;;;;;;;;6178690;28;20125;-71
2021/12/14 13:59:15;;;;;;;101.18;52.67;;;;;;;;;;6200911;28;20077;-71
2021/12/14 14:02:15;;;;;;;103.00;52.25;;;;;;;;;;6184617;28;20039;-70
2021/12/14 14:05:16;;;;;;;95.00;48.25;;;;;;;;;;6187604;28;20070;-71
2021/12/14 14:08:23;;;;;;;106.40;46.95;;;;;;;;;;6198351;28;20022;-71
2021/12/14 14:11:37;;;;;;;108.25;48.13;;;;;;;;;;6244678;28;20021;-71
2021/12/14 14:14:38;;;;;;;102.70;45.97;;;;;;;;;;6233073;28;20041;-71
2021/12/14 14:17:45;;;;;;;107.55;48.00;;;;;;;;;;6232137;28;20064;-70
2021/12/14 14:20:50;;;;;;;101.85;48.30;;;;;;;;;;6243347;28;20025;-70
2021/12/14 14:23:51;;;;;;;103.35;45.53;;;;;;;;;;6246177;28;20025;-70
2021/12/14 14:26:51;;;;;;;108.63;51.72;;;;;;;;;;6243460;28;20029;-70
2021/12/14 14:29:51;;;;;;;92.43;42.30;;;;;;;;;;6233846;28;20540;-70
2021/12/14 14:33:18;;;;;;;95.45;42.83;;;;;;;;;;6225814;28;20021;-71
2021/12/14 14:36:21;;;;;;;96.70;44.60;;;;;;;;;;6245767;28;20025;-70
2021/12/14 14:39:23;;;;;;;103.40;47.78;;;;;;;;;;6243750;28;20025;-71
2021/12/14 14:42:25;;;;;;;93.28;49.20;;;;;;;;;;6244965;28;20018;-71
2021/12/14 14:45:27;;;;;;;117.82;55.35;;;;;;;;;;6245182;28;20018;-71
2021/12/14 14:48:27;;;;;;;272.77;123.45;;;;;;;;;;6224559;28;20034;-71
2021/12/14 14:51:46;;;;;;;112.07;51.50;;;;;;;;;;6237291;28;20033;-71
2021/12/14 14:55:05;;;;;;;114.40;53.33;;;;;;;;;;6244802;28;20041;-71
2021/12/14 14:58:09;;;;;;;94.72;44.40;;;;;;;;;;6241886;28;20371;-71
2021/12/14 15:01:12;;;;;;;107.80;47.83;;;;;;;;;;6237728;28;20018;-71
2021/12/14 15:04:12;;;;;;;107.03;52.92;;;;;;;;;;6239531;28;20033;-71
2021/12/14 15:07:13;;;;;;;117.20;50.55;;;;;;;;;;6227229;28;20029;-71
2021/12/14 15:10:14;;;;;;;111.80;51.25;;;;;;;;;;6218390;28;20129;-71
2021/12/14 15:13:17;;;;;;;102.57;48.80;;;;;;;;;;6221583;28;20010;-71
2021/12/14 15:16:23;;;;;;;105.05;50.55;;;;;;;;;;6232532;28;20109;-71
2021/12/14 15:19:31;;;;;;;121.93;53.97;;;;;;;;;;6227976;28;20394;-71
2021/12/14 15:22:34;;;;;;;122.53;57.53;;;;;;;;;;6231852;28;20410;-71
2021/12/14 15:25:35;;;;;;;107.97;52.47;;;;;;;;;;6226186;28;20021;-71
2021/12/14 15:28:35;;;;;;;114.47;55.57;;;;;;;;;;6240249;28;20024;-71
2021/12/14 15:31:37;;;;;;;117.07;59.10;;;;;;;;;;6242047;28;20802;-71
2021/12/14 15:34:52;;;;;;;112.47;56.33;;;;;;;;;;6241723;28;20115;-71
2021/12/14 15:37:55;;;;;;;100.63;52.78;;;;;;;;;;6241371;28;20575;-71
2021/12/14 15:40:58;;;;;;;121.60;58.53;;;;;;;;;;6239007;28;20524;-71
2021/12/14 15:44:09;;;;;;;191.73;82.22;;;;;;;;;;6241513;28;20048;-70
2021/12/14 15:47:10;;;;;;;172.50;73.95;;;;;;;;;;6234292;28;20022;-70
2021/12/14 15:50:18;;;;;;;156.00;68.45;;;;;;;;;;6241332;28;20025;-70
2021/12/14 15:53:31;;;;;;;151.35;63.53;;;;;;;;;;6240169;28;20017;-70
2021/12/14 15:56:32;;;;;;;129.30;61.28;;;;;;;;;;6242312;28;20029;-70
2021/12/14 15:59:33;;;;;;;142.77;62.30;;;;;;;;;;6242795;28;20029;-70
2021/12/14 16:02:35;;;;;;;128.95;56.72;;;;;;;;;;6239342;28;20026;-70
2021/12/14 16:05:37;;;;;;;;;;;;;;;;;;6243258;28;20022;-70
2021/12/14 16:08:39;;;;;;;128.23;57.40;;;;;;;;;;6242948;28;19924;-70
2021/12/14 16:11:48;;;;;;;113.88;53.85;;;;;;;;;;6242828;28;20408;-70
2021/12/14 16:15:09;;;;;;;115.18;53.67;;;;;;;;;;6241532;28;20029;-70
2021/12/14 16:18:11;;;;;;;114.40;54.85;;;;;;;;;;6239209;28;20428;-70
2021/12/14 16:21:11;;;;;;;;;;;;;;;;;;6243719;28;20103;-70
2021/12/14 16:24:12;;;;;;;118.65;53.92;;;;;;;;;;6244621;28;20242;-70
2021/12/14 16:27:19;;;;;;;124.75;57.28;;;;;;;;;;6243142;28;20022;-70
2021/12/14 16:30:23;;;;;;;137.25;61.00;;;;;;;;;;6243194;28;20470;-70
2021/12/14 16:33:53;;;;;;;126.78;55.67;;;;;;;;;;6243361;28;20104;-70
2021/12/14 16:36:55;;;;;;;123.45;56.05;;;;;;;;;;6227472;28;20452;-70
2021/12/14 16:39:55;;;;;;;111.88;50.40;;;;;;;;;;6223131;28;20604;-70
2021/12/14 16:42:56;;;;;;;104.82;47.05;;;;;;;;;;6240722;28;20100;-70
2021/12/14 16:45:56;;;;;;;88.57;43.28;;;;;;;;;;6237822;28;20021;-70
2021/12/14 16:48:57;;;;;;;92.45;49.58;;;;;;;;;;6238766;28;20076;-70
2021/12/14 16:52:03;;;;;;;96.63;49.73;;;;;;;;;;6240744;28;20024;-71
2021/12/14 16:55:07;;;;;;;102.78;49.42;;;;;;;;;;6240944;28;20029;-70
2021/12/14 16:58:11;;;;;;;97.00;46.97;;;;;;;;;;6242636;28;20036;-70
2021/12/14 17:01:11;;;;;;;108.75;50.67;;;;;;;;;;6242501;28;20108;-70
2021/12/14 17:04:12;;;;;;;103.07;54.28;;;;;;;;;;6243035;28;20026;-70
2021/12/14 17:07:15;;;;;;;112.50;51.90;;;;;;;;;;6242843;28;20495;-70
2021/12/14 17:10:27;;;;;;;130.50;61.20;;;;;;;;;;6230877;28;20030;-70
2021/12/14 17:13:29;;;;;;;154.93;79.55;;;;;;;;;;6216108;28;20097;-70
2021/12/14 17:16:36;;;;;;;133.10;65.97;;;;;;;;;;6216246;28;20500;-70
2021/12/14 17:19:40;;;;;;;115.80;58.25;;;;;;;;;;6217321;28;20025;-70
2021/12/14 17:22:41;;;;;;;112.15;51.03;;;;;;;;;;6219132;28;20017;-70
2021/12/14 17:25:41;;;;;;;106.47;54.63;;;;;;;;;;6215838;28;20474;-70
2021/12/14 17:28:50;;;;;;;120.93;60.83;;;;;;;;;;6216149;28;20018;-70
2021/12/14 17:31:55;;;;;;;137.02;61.88;;;;;;;;;;6218368;28;20018;-70
2021/12/14 17:34:57;;;;;;;120.40;53.25;;;;;;;;;;6231076;28;20430;-70
2021/12/14 17:37:59;;;;;;;121.80;62.38;;;;;;;;;;6218622;28;20072;-70
2021/12/14 17:41:00;;;;;;;;;;;;;;;;;;6216587;28;20021;-70
2021/12/14 17:44:15;;;;;;;126.90;55.73;;;;;;;;;;6218218;28;19917;-70
2021/12/14 17:47:22;;;;;;;139.63;64.32;;;;;;;;;;6218569;28;20602;-70
2021/12/14 17:50:24;;;;;;;139.75;62.15;;;;;;;;;;6223365;28;20034;-70
2021/12/14 17:53:27;;;;;;;121.28;53.42;;;;;;;;;;6239466;28;20034;-70
2021/12/14 17:56:27;;;;;;;176.48;81.95;;;;;;;;;;6231333;28;20121;-70
2021/12/14 17:59:38;;;;;;;134.95;61.30;;;;;;;;;;6230985;28;20400;-70
2021/12/14 18:02:41;;;;;;;131.65;60.22;;;;;;;;;;6242056;28;20060;-70
2021/12/14 18:05:49;;;;;;;134.45;59.13;;;;;;;;;;6234718;28;20026;-69
2021/12/14 18:08:55;;;;;;;130.90;63.63;;;;;;;;;;6218186;28;20065;-69